Latest METARs, TAFs and NOTAMs for EGWU


---------------------------------------------------------------------------
	(OBSERVATIONS)
EGWU 160650Z 30002KT CAVOK 19/11 Q1014 BLU NOSIG=
EGWU 160620Z NIL=
EGWU 160550Z 29001KT CAVOK 17/12 Q1014 BLU NOSIG=
EGWU 160520Z NIL=
EGWU 160450Z AUTO 30002KT 9999 // NCD 15/10 Q1014=
EGWU 160420Z NIL=
---------------------------------------------------------------------------
	(FC)
Sorry, FC For EGWU Not Found
---------------------------------------------------------------------------
	(TERMINAL AREA FORECAST)
EGWU 160433Z 1606/1624 28010KT CAVOK=
---------------------------------------------------------------------------
	(NOTAMS)


EGWU U2552/18 THERE IS AN AREA OF DISTURBED GROUND WITHIN THE
    RUNWAY STRIP OPPOSITE TAXIWAY ECHO (PSN: 513330N 0002518W).
    PILOTS ARE THEREFORE TO BE AWARE OF THE POSSIBILITY OF INCREASED
    BIRD ACTIVITY AT THAT POSITION. 05 JUN 06:28 2018 UNTIL 03
    SEP 23:59 2018. CREATED: 05 JUN 06:31 2018

EGWU U2766/18 CRANE OPERATIONS IN (UXBRIDGE) PENETRATES THE INNER
    HORIZONTAL SURFACE AND THE RWY 07 APPROACH AND RWY 25 TAKE-OFF
    CLIMB SURFACES. VMC (A) 630 (510) TO 660 (540) LNAV 07 580
    (470) TO 610 (500) PAR 07 MINIMA INCREASED AS FOLLOWS: CAT
    A 470 (350) TO 500 (380) CAT B 480 (360) TO 510 (390) CAT
    C 490 (370) TO 520 (400) CAT D 500 (380) TO 530 (410. 18
    JUN 14:32 2018 UNTIL 17 SEP 23:59 2018. CREATED: 18 JUN 14:32
    2018

EGWU U3013/18 AD CLSD TO CIVIL ACFT, MIL VIA PPR ONLY, ATS CAT
    A AND B FLIGHTS EXEMPT. 06 1600-1900, 07 0700-1400, 08 1100-1800,
    09-13 0700-1900, 14 0700-1400, 15 1100-1800, 16-20 1600-1900,
    21 0700-1400, 22 1100-1800, 06 JUL 16:00 2018 UNTIL 22 JUL
    18:00 2018. CREATED: 06 JUL 13:26 2018

EGWU U3826/16 ALL USERS OF RAF NORTHOLT MUST COMPLY WITH THE
    DEFENCE AERODROME MANUAL. 18 NOV 06:00 2016 UNTIL PERM. CREATED:
    18 NOV 06:07 2016

---------------------------------------------------------------------------